createdAt,value
2022-10-04T00:00:12.922Z,7.1
2022-10-04T00:01:12.938Z,7.2
2022-10-04T00:02:13.257Z,7.2
2022-10-04T00:03:12.999Z,7.2
2022-10-04T00:04:12.926Z,7.2
2022-10-04T00:05:12.926Z,7.2
2022-10-04T00:06:12.936Z,7.2
2022-10-04T00:07:12.956Z,7.2
2022-10-04T00:08:12.937Z,7.2
2022-10-04T00:09:12.941Z,7.2
2022-10-04T00:10:12.941Z,7.2
2022-10-04T00:11:12.942Z,7.2
2022-10-04T00:12:12.932Z,7.2
2022-10-04T00:13:12.920Z,7.2
2022-10-04T00:14:12.944Z,7.2
2022-10-04T00:15:13.045Z,7.2
2022-10-04T00:16:13.277Z,7.3
2022-10-04T00:17:12.943Z,7.3
2022-10-04T00:18:12.953Z,7.2
2022-10-04T00:19:12.941Z,7.2
2022-10-04T00:20:12.941Z,7.2
2022-10-04T00:21:12.933Z,7.2
2022-10-04T00:22:12.948Z,7.2
2022-10-04T00:23:12.947Z,7.3
2022-10-04T00:24:12.938Z,7.2
2022-10-04T00:25:12.935Z,7.3
2022-10-04T00:26:12.949Z,7.3
2022-10-04T00:27:13.056Z,7.3
2022-10-04T00:28:13.043Z,7.3
2022-10-04T00:29:12.940Z,7.2
2022-10-04T00:30:12.942Z,7.3
2022-10-04T00:31:12.986Z,7.2
2022-10-04T00:32:12.958Z,7.3
2022-10-04T00:33:12.924Z,7.3
2022-10-04T00:34:12.945Z,7.3
2022-10-04T00:35:12.957Z,7.3
2022-10-04T00:36:12.935Z,7.3
2022-10-04T00:37:12.934Z,7.3
2022-10-04T00:38:12.970Z,7.3
2022-10-04T00:39:12.935Z,7.3
2022-10-04T00:41:12.943Z,7.3
2022-10-04T00:42:12.953Z,7.3
2022-10-04T00:43:12.938Z,7.3
2022-10-04T00:44:12.945Z,7.3
2022-10-04T00:45:12.938Z,7.3
2022-10-04T00:46:13.016Z,7.3
2022-10-04T00:47:12.934Z,7.3
2022-10-04T00:48:12.943Z,7.3
2022-10-04T00:49:12.941Z,7.3
2022-10-04T00:50:12.954Z,7.3
2022-10-04T00:51:12.936Z,7.3
2022-10-04T00:52:12.938Z,7.3
2022-10-04T00:53:12.929Z,7.3
2022-10-04T00:54:12.946Z,7.3
2022-10-04T00:55:12.935Z,7.3
2022-10-04T00:56:12.935Z,7.3
2022-10-04T00:57:12.930Z,7.3
2022-10-04T00:58:12.961Z,7.3
2022-10-04T00:59:12.935Z,7.3
2022-10-04T01:00:12.951Z,7.2
2022-10-04T01:01:13.007Z,7.2
2022-10-04T01:02:12.977Z,7.2
2022-10-04T01:03:12.961Z,7.2
2022-10-04T01:04:13.020Z,7.2
2022-10-04T01:05:12.942Z,7.1
2022-10-04T01:06:12.945Z,7.1
2022-10-04T01:07:12.939Z,7.1
2022-10-04T01:08:12.942Z,7.1
2022-10-04T01:09:13.133Z,7.1
2022-10-04T01:10:12.945Z,7.1
2022-10-04T01:11:12.942Z,7.1
2022-10-04T01:12:12.943Z,7.1
2022-10-04T01:13:12.947Z,7.1
2022-10-04T01:14:12.940Z,7.1
2022-10-04T01:15:12.930Z,7.1
2022-10-04T01:16:13.030Z,7.2
2022-10-04T01:17:12.950Z,7.2
2022-10-04T01:18:12.929Z,7.2
2022-10-04T01:19:12.940Z,7.2
2022-10-04T01:20:12.959Z,7.2
2022-10-04T01:21:12.967Z,7.2
2022-10-04T01:22:12.933Z,7.2
2022-10-04T01:23:12.944Z,7.2
2022-10-04T01:24:13.014Z,7.2
2022-10-04T01:25:12.963Z,7.2
2022-10-04T01:26:12.939Z,7.3
2022-10-04T01:27:12.957Z,7.3
2022-10-04T01:28:13.062Z,7.3
2022-10-04T01:29:12.972Z,7.3
2022-10-04T01:30:12.942Z,7.3
2022-10-04T01:31:12.977Z,7.2
2022-10-04T01:32:12.941Z,7.2
2022-10-04T01:33:12.934Z,7.2
2022-10-04T01:34:12.934Z,7.2
2022-10-04T01:35:12.958Z,7.2
2022-10-04T01:36:12.937Z,7.2
2022-10-04T01:37:12.959Z,7.2
2022-10-04T01:38:12.946Z,7.2
2022-10-04T01:39:12.940Z,7.2
2022-10-04T01:40:12.973Z,7.2
2022-10-04T01:41:12.974Z,7.2
2022-10-04T01:42:12.937Z,7.2
2022-10-04T01:43:12.958Z,7.2
2022-10-04T01:44:12.939Z,7.2
2022-10-04T01:45:12.937Z,7.2
2022-10-04T01:46:12.957Z,7.2
2022-10-04T01:47:12.960Z,7.2
2022-10-04T01:48:12.953Z,7.2
2022-10-04T01:49:12.945Z,7.2
2022-10-04T01:50:15.798Z,7.2
2022-10-04T01:51:12.935Z,7.2
2022-10-04T01:52:12.949Z,7.2
2022-10-04T01:53:12.963Z,7.2
2022-10-04T01:54:12.973Z,7.2
2022-10-04T01:55:12.955Z,7.2
2022-10-04T01:56:12.946Z,7.2
2022-10-04T01:57:12.948Z,7.2
2022-10-04T01:58:12.947Z,7.2
2022-10-04T01:59:12.973Z,7.2
2022-10-04T02:00:12.944Z,7.2
2022-10-04T02:01:13.044Z,7.2
2022-10-04T02:02:12.940Z,7.2
2022-10-04T02:03:12.937Z,7.2
2022-10-04T02:04:12.991Z,7.2
2022-10-04T02:05:12.949Z,7.2
2022-10-04T02:06:12.940Z,7.2
2022-10-04T02:07:12.940Z,7.2
2022-10-04T02:08:13.014Z,7.2
2022-10-04T02:09:12.947Z,7.2
2022-10-04T02:10:12.947Z,7.3
2022-10-04T02:11:13.012Z,7.2
2022-10-04T02:12:12.946Z,7.2
2022-10-04T02:13:12.949Z,7.2
2022-10-04T02:14:12.937Z,7.2
2022-10-04T02:15:12.929Z,7.2
2022-10-04T02:16:12.994Z,7.2
2022-10-04T02:17:12.943Z,7.2
2022-10-04T02:18:12.963Z,7.2
2022-10-04T02:19:12.949Z,7.2
2022-10-04T02:20:12.939Z,7.2
2022-10-04T02:21:12.956Z,7.2
2022-10-04T02:22:12.940Z,7.2
2022-10-04T02:23:12.942Z,7.2
2022-10-04T02:24:12.939Z,7.2
2022-10-04T02:25:12.944Z,7.2
2022-10-04T02:26:12.930Z,7.2
2022-10-04T02:27:12.953Z,7.2
2022-10-04T02:28:12.990Z,7.2
2022-10-04T02:29:12.966Z,7.1
2022-10-04T02:30:12.939Z,7.1
2022-10-04T02:32:12.943Z,7.1
2022-10-04T02:33:12.948Z,7.1
2022-10-04T02:34:12.998Z,7.1
2022-10-04T02:35:12.946Z,7.1
2022-10-04T02:36:12.939Z,7.1
2022-10-04T02:37:12.951Z,7.1
2022-10-04T02:38:12.973Z,7.1
2022-10-04T02:39:12.950Z,7
2022-10-04T02:40:12.952Z,7
2022-10-04T02:41:12.961Z,7
2022-10-04T02:42:12.968Z,7.1
2022-10-04T02:43:12.934Z,7.1
2022-10-04T02:44:12.930Z,7
2022-10-04T02:45:12.982Z,6.9
2022-10-04T02:46:12.986Z,7
2022-10-04T02:47:12.937Z,7
2022-10-04T02:48:12.943Z,7
2022-10-04T02:49:12.963Z,7
2022-10-04T02:50:12.958Z,7
2022-10-04T02:51:12.948Z,7
2022-10-04T02:52:12.937Z,7
2022-10-04T02:53:12.974Z,7
2022-10-04T02:54:12.966Z,7
2022-10-04T02:55:12.941Z,6.9
2022-10-04T02:56:12.946Z,6.9
2022-10-04T02:57:12.961Z,7
2022-10-04T02:58:12.940Z,7
2022-10-04T02:59:12.932Z,7
2022-10-04T03:00:12.940Z,7
2022-10-04T03:01:13.045Z,7
2022-10-04T03:02:13.002Z,7
2022-10-04T03:03:12.941Z,6.9
2022-10-04T03:05:12.951Z,7
2022-10-04T03:06:12.971Z,7
2022-10-04T03:07:12.932Z,7
2022-10-04T03:08:12.984Z,7
2022-10-04T03:09:12.974Z,7
2022-10-04T03:10:13.097Z,7
2022-10-04T03:11:12.991Z,6.9
2022-10-04T03:12:13.138Z,7
2022-10-04T03:13:13.213Z,6.9
2022-10-04T03:14:12.999Z,6.9
2022-10-04T03:15:12.949Z,6.9
2022-10-04T03:16:13.042Z,6.9
2022-10-04T03:17:12.993Z,6.9
2022-10-04T03:18:12.966Z,6.8
2022-10-04T03:19:12.953Z,6.8
2022-10-04T03:20:12.945Z,6.8
2022-10-04T03:21:12.951Z,6.8
2022-10-04T03:22:12.949Z,6.9
2022-10-04T03:23:12.965Z,6.9
2022-10-04T03:24:12.939Z,6.9
2022-10-04T03:25:12.933Z,6.8
2022-10-04T03:26:12.956Z,6.9
2022-10-04T03:27:12.963Z,6.8
2022-10-04T03:28:13.046Z,6.9
2022-10-04T03:29:12.944Z,6.8
2022-10-04T03:30:12.952Z,6.9
2022-10-04T03:31:12.965Z,6.9
2022-10-04T03:33:12.957Z,6.8
2022-10-04T03:34:12.966Z,6.8
2022-10-04T03:35:12.968Z,6.8
2022-10-04T03:36:12.950Z,6.8
2022-10-04T03:37:12.957Z,6.8
2022-10-04T03:38:12.961Z,6.7
2022-10-04T03:39:12.942Z,6.7
2022-10-04T03:40:12.945Z,6.8
2022-10-04T03:41:12.946Z,6.8
2022-10-04T03:42:12.975Z,6.8
2022-10-04T03:43:23.239Z,6.8
2022-10-04T03:44:23.259Z,6.8
2022-10-04T03:45:23.231Z,6.8
2022-10-04T03:46:13.017Z,6.8
2022-10-04T03:47:12.963Z,6.8
2022-10-04T03:48:12.939Z,6.8
2022-10-04T03:49:12.941Z,6.8
2022-10-04T03:50:12.952Z,6.8
2022-10-04T03:51:12.944Z,6.7
2022-10-04T03:52:12.962Z,6.7
2022-10-04T03:53:12.944Z,6.7
2022-10-04T03:54:12.950Z,6.7
2022-10-04T03:55:12.958Z,6.7
2022-10-04T03:56:12.940Z,6.7
2022-10-04T03:57:12.970Z,6.7
2022-10-04T03:58:12.948Z,6.7
2022-10-04T03:59:12.940Z,6.7
2022-10-04T04:00:12.941Z,6.7
2022-10-04T04:01:13.000Z,6.7
2022-10-04T04:02:13.079Z,6.8
2022-10-04T04:03:12.960Z,6.8
2022-10-04T04:04:12.945Z,6.8
2022-10-04T04:05:12.963Z,6.8
2022-10-04T04:06:12.967Z,6.8
2022-10-04T04:07:12.966Z,6.8
2022-10-04T04:08:12.951Z,6.8
2022-10-04T04:09:12.952Z,6.8
2022-10-04T04:10:16.667Z,6.8
2022-10-04T04:11:12.944Z,6.8
2022-10-04T04:12:12.984Z,6.8
2022-10-04T04:13:12.963Z,6.8
2022-10-04T04:14:12.951Z,6.8
2022-10-04T04:15:13.001Z,6.8
2022-10-04T04:16:13.000Z,6.8
2022-10-04T04:17:13.022Z,6.8
2022-10-04T04:18:12.939Z,6.9
2022-10-04T04:19:12.958Z,6.8
2022-10-04T04:20:12.948Z,6.9
2022-10-04T04:21:12.965Z,6.9
2022-10-04T04:22:12.958Z,6.9
2022-10-04T04:23:12.973Z,6.9
2022-10-04T04:24:12.958Z,6.9
2022-10-04T04:25:12.961Z,6.9
2022-10-04T04:27:13.042Z,6.9
2022-10-04T04:28:13.106Z,6.9
2022-10-04T04:29:12.958Z,6.8
2022-10-04T04:30:12.949Z,6.8
2022-10-04T04:31:13.047Z,6.8
2022-10-04T04:32:13.079Z,6.7
2022-10-04T04:33:14.254Z,6.7
2022-10-04T04:34:12.935Z,6.7
2022-10-04T04:35:12.954Z,6.7
2022-10-04T04:36:12.945Z,6.7
2022-10-04T04:37:13.002Z,6.7
2022-10-04T04:38:12.943Z,6.7
2022-10-04T04:39:12.958Z,6.7
2022-10-04T04:40:12.952Z,6.7
2022-10-04T04:41:12.947Z,6.7
2022-10-04T04:42:12.958Z,6.7
2022-10-04T04:43:12.963Z,6.8
2022-10-04T04:44:12.950Z,6.7
2022-10-04T04:45:12.942Z,6.7
2022-10-04T04:46:27.152Z,6.8
2022-10-04T04:47:17.532Z,6.8
2022-10-04T04:49:12.946Z,6.8
2022-10-04T04:50:12.954Z,6.8
2022-10-04T04:51:12.944Z,6.8
2022-10-04T04:52:12.955Z,6.8
2022-10-04T04:53:12.947Z,6.8
2022-10-04T04:55:12.958Z,6.8
2022-10-04T04:56:23.257Z,6.8
2022-10-04T04:57:23.229Z,6.8
2022-10-04T04:58:23.239Z,6.9
2022-10-04T04:59:12.940Z,6.8
2022-10-04T05:00:12.939Z,6.8
2022-10-04T05:01:13.029Z,6.8
2022-10-04T05:02:13.007Z,6.8
2022-10-04T05:03:12.959Z,6.8
2022-10-04T05:04:12.941Z,6.8
2022-10-04T05:05:12.960Z,6.8
2022-10-04T05:06:12.945Z,6.8
2022-10-04T05:08:12.938Z,6.8
2022-10-04T05:09:13.000Z,6.8
2022-10-04T05:10:12.938Z,6.8
2022-10-04T05:11:12.939Z,6.8
2022-10-04T05:12:12.972Z,6.8
2022-10-04T05:13:12.954Z,6.8
2022-10-04T05:14:12.946Z,6.9
2022-10-04T05:15:12.955Z,6.9
2022-10-04T05:16:13.026Z,6.9
2022-10-04T05:17:12.995Z,6.9
2022-10-04T05:18:12.948Z,6.9
2022-10-04T05:19:12.955Z,6.8
2022-10-04T05:20:12.959Z,6.9
2022-10-04T05:21:12.940Z,6.9
2022-10-04T05:22:12.999Z,6.8
2022-10-04T05:23:12.953Z,6.9
2022-10-04T05:24:12.953Z,6.8
2022-10-04T05:25:12.964Z,6.8
2022-10-04T05:26:12.961Z,6.8
2022-10-04T05:27:12.935Z,6.8
2022-10-04T05:28:12.994Z,6.8
2022-10-04T05:29:12.983Z,6.8
2022-10-04T05:30:12.958Z,6.8
2022-10-04T05:31:13.018Z,6.8
2022-10-04T05:32:13.040Z,6.8
2022-10-04T05:33:12.956Z,6.8
2022-10-04T05:34:12.963Z,6.8
2022-10-04T05:35:12.957Z,6.7
2022-10-04T05:36:12.971Z,6.7
2022-10-04T05:37:12.941Z,6.7
2022-10-04T05:38:12.948Z,6.8
2022-10-04T05:39:12.960Z,6.7
2022-10-04T05:40:12.957Z,6.7
2022-10-04T05:41:12.943Z,6.7
2022-10-04T05:42:12.958Z,6.7
2022-10-04T05:43:12.953Z,6.8
2022-10-04T05:44:12.980Z,6.8
2022-10-04T05:45:12.951Z,6.8
2022-10-04T05:46:13.061Z,6.8
2022-10-04T05:47:19.253Z,6.8
2022-10-04T05:48:12.967Z,6.8
2022-10-04T05:49:18.148Z,6.8
2022-10-04T05:50:12.969Z,6.9
2022-10-04T05:51:12.963Z,6.8
2022-10-04T05:52:12.945Z,6.9
2022-10-04T05:53:12.942Z,6.8
2022-10-04T05:54:12.949Z,6.9
2022-10-04T05:55:13.008Z,6.9
2022-10-04T05:56:12.983Z,6.9
2022-10-04T05:57:12.962Z,6.9
2022-10-04T05:58:12.964Z,6.9
2022-10-04T05:59:12.941Z,6.9
2022-10-04T06:00:12.949Z,6.9
2022-10-04T06:01:13.047Z,6.9
2022-10-04T06:02:12.981Z,6.9
2022-10-04T06:03:12.945Z,6.9
2022-10-04T06:04:12.954Z,6.9
2022-10-04T06:05:12.943Z,6.9
2022-10-04T06:06:12.986Z,6.9
2022-10-04T06:07:12.953Z,6.9
2022-10-04T06:08:12.974Z,6.9
2022-10-04T06:09:12.938Z,6.9
2022-10-04T06:10:12.989Z,6.9
2022-10-04T06:11:12.958Z,6.9
2022-10-04T06:12:12.953Z,6.9
2022-10-04T06:13:12.985Z,6.9
2022-10-04T06:14:12.955Z,7
2022-10-04T06:15:12.958Z,7
2022-10-04T06:16:12.999Z,7
2022-10-04T06:17:12.958Z,7
2022-10-04T06:18:12.946Z,7
2022-10-04T06:20:12.956Z,7
2022-10-04T06:21:12.942Z,7
2022-10-04T06:22:12.950Z,7
2022-10-04T06:23:12.981Z,7
2022-10-04T06:24:12.953Z,7
2022-10-04T06:25:12.941Z,7
2022-10-04T06:26:12.949Z,7
2022-10-04T06:27:12.938Z,7
2022-10-04T06:28:12.998Z,7.1
2022-10-04T06:29:12.945Z,7
2022-10-04T06:30:12.959Z,7
2022-10-04T06:31:13.022Z,7
2022-10-04T06:32:12.952Z,7
2022-10-04T06:33:12.937Z,7
2022-10-04T06:34:12.959Z,7
2022-10-04T06:35:12.988Z,7
2022-10-04T06:36:12.938Z,7
2022-10-04T06:37:12.946Z,7
2022-10-04T06:38:12.953Z,7
2022-10-04T06:39:12.955Z,7
2022-10-04T06:40:12.944Z,7
2022-10-04T06:41:12.945Z,7
2022-10-04T06:42:12.960Z,7
2022-10-04T06:43:12.949Z,7
2022-10-04T06:44:12.947Z,6.9
2022-10-04T06:45:12.978Z,6.9
2022-10-04T06:46:13.140Z,7
2022-10-04T06:47:06.668Z,6.9
2022-10-04T06:48:12.949Z,6.9
2022-10-04T06:49:12.953Z,7
2022-10-04T06:50:12.942Z,7
2022-10-04T06:51:12.965Z,7.1
2022-10-04T06:52:17.240Z,7.1
2022-10-04T06:53:12.941Z,7.1
2022-10-04T06:54:12.949Z,7.2
2022-10-04T06:55:12.971Z,7.1
2022-10-04T06:56:12.937Z,7.2
2022-10-04T06:57:12.943Z,7.2
2022-10-04T06:58:12.957Z,7.2
2022-10-04T06:59:12.955Z,7.2
2022-10-04T07:00:12.970Z,7.2
2022-10-04T07:01:13.012Z,7.2
2022-10-04T07:02:13.000Z,7.2
2022-10-04T07:03:12.951Z,7.2
2022-10-04T07:04:12.946Z,7.2
2022-10-04T07:05:12.947Z,7.2
2022-10-04T07:06:12.969Z,7.2
2022-10-04T07:07:12.957Z,7.2
2022-10-04T07:08:12.951Z,7.2
2022-10-04T07:09:12.942Z,7.2
2022-10-04T07:10:12.955Z,7.2
2022-10-04T07:11:12.954Z,7.3
2022-10-04T07:12:12.968Z,7.3
2022-10-04T07:13:12.973Z,7.3
2022-10-04T07:14:12.934Z,7.3
2022-10-04T07:15:12.956Z,7.3
2022-10-04T07:16:13.054Z,7.3
2022-10-04T07:17:13.049Z,7.3
2022-10-04T07:18:12.945Z,7.3
2022-10-04T07:19:12.955Z,7.4
2022-10-04T07:20:12.976Z,7.4
2022-10-04T07:21:12.945Z,7.4
2022-10-04T07:22:13.021Z,7.4
2022-10-04T07:23:12.954Z,7.4
2022-10-04T07:24:12.959Z,7.5
2022-10-04T07:25:12.966Z,7.5
2022-10-04T07:26:12.942Z,7.5
2022-10-04T07:27:12.962Z,7.5
2022-10-04T07:28:13.073Z,7.5
2022-10-04T07:29:12.948Z,7.5
2022-10-04T07:30:12.945Z,7.5
2022-10-04T07:31:13.039Z,7.6
2022-10-04T07:32:12.981Z,7.5
2022-10-04T07:33:12.981Z,7.6
2022-10-04T07:34:12.945Z,7.6
2022-10-04T07:35:12.960Z,7.6
2022-10-04T07:36:12.960Z,7.6
2022-10-04T07:37:13.060Z,7.6
2022-10-04T07:38:12.948Z,7.6
2022-10-04T07:39:12.958Z,7.7
2022-10-04T07:40:12.940Z,7.7
2022-10-04T07:41:12.952Z,7.7
2022-10-04T07:42:12.951Z,7.8
2022-10-04T07:43:12.965Z,7.8
2022-10-04T07:44:12.951Z,7.7
2022-10-04T07:45:12.961Z,7.6
2022-10-04T07:46:13.035Z,7.7
2022-10-04T07:47:12.950Z,7.7
2022-10-04T07:48:12.970Z,7.7
2022-10-04T07:49:12.976Z,7.8
2022-10-04T07:50:12.987Z,7.8
2022-10-04T07:51:12.983Z,7.8
2022-10-04T07:52:12.970Z,7.8
2022-10-04T07:53:12.947Z,7.8
2022-10-04T07:54:12.984Z,7.8
2022-10-04T07:55:12.962Z,7.9
2022-10-04T07:56:12.948Z,7.8
2022-10-04T07:57:12.946Z,7.9
2022-10-04T07:58:12.957Z,7.9
2022-10-04T07:59:12.961Z,7.8
2022-10-04T08:00:12.947Z,7.8
2022-10-04T08:01:12.942Z,7.9
2022-10-04T08:02:13.142Z,7.8
2022-10-04T08:03:12.995Z,7.9
2022-10-04T08:04:12.964Z,7.9
2022-10-04T08:05:12.958Z,7.9
2022-10-04T08:06:13.005Z,7.8
2022-10-04T08:07:12.955Z,7.8
2022-10-04T08:08:12.994Z,7.8
2022-10-04T08:09:12.963Z,7.8
2022-10-04T08:10:12.971Z,7.8
2022-10-04T08:11:12.957Z,7.8
2022-10-04T08:12:12.961Z,7.9
2022-10-04T08:13:12.985Z,7.8
2022-10-04T08:14:12.964Z,7.8
2022-10-04T08:15:12.976Z,7.8
2022-10-04T08:16:13.012Z,7.8
2022-10-04T08:17:15.621Z,7.9
2022-10-04T08:18:12.958Z,7.9
2022-10-04T08:19:12.950Z,7.9
2022-10-04T08:20:12.965Z,7.9
2022-10-04T08:21:12.978Z,7.9
2022-10-04T08:22:12.946Z,7.9
2022-10-04T08:23:12.964Z,7.9
2022-10-04T08:24:13.001Z,7.9
2022-10-04T08:25:13.029Z,8
2022-10-04T08:26:12.959Z,8
2022-10-04T08:28:13.077Z,8
2022-10-04T08:29:12.962Z,8
2022-10-04T08:30:12.950Z,8
2022-10-04T08:31:13.055Z,8
2022-10-04T08:32:12.981Z,8
2022-10-04T08:33:12.981Z,8
2022-10-04T08:34:12.986Z,7.9
2022-10-04T08:35:12.979Z,7.9
2022-10-04T08:36:12.958Z,7.8
2022-10-04T08:37:12.991Z,7.9
2022-10-04T08:38:12.968Z,7.9
2022-10-04T08:39:12.977Z,7.8
2022-10-04T08:40:13.211Z,7.9
2022-10-04T08:41:12.991Z,7.9
2022-10-04T08:42:12.963Z,7.9
2022-10-04T08:43:12.955Z,7.9
2022-10-04T08:44:12.976Z,8
2022-10-04T08:45:12.962Z,7.8
2022-10-04T08:46:13.020Z,7.9
2022-10-04T08:47:12.960Z,8
2022-10-04T08:48:12.968Z,8
2022-10-04T08:49:12.963Z,8.1
2022-10-04T08:50:12.989Z,8.1
2022-10-04T08:51:12.971Z,8.2
2022-10-04T08:52:12.991Z,8.1
2022-10-04T08:53:12.962Z,8.1
2022-10-04T08:54:12.965Z,8.1
2022-10-04T08:55:12.997Z,8.2
2022-10-04T08:56:12.963Z,8.2
2022-10-04T08:57:16.145Z,8.2
2022-10-04T08:58:12.948Z,8.1
2022-10-04T08:59:12.980Z,8
2022-10-04T09:00:12.985Z,8.1
2022-10-04T09:01:13.030Z,8
2022-10-04T09:02:13.012Z,8.1
2022-10-04T09:03:12.980Z,7.8
2022-10-04T09:04:12.958Z,7.8
2022-10-04T09:05:12.967Z,7.9
2022-10-04T09:06:12.977Z,7.9
2022-10-04T09:07:12.980Z,7.9
2022-10-04T09:08:12.954Z,7.9
2022-10-04T09:09:12.954Z,7.9
2022-10-04T09:10:13.010Z,7.9
2022-10-04T09:11:12.995Z,7.9
2022-10-04T09:12:12.950Z,7.8
2022-10-04T09:13:12.995Z,7.9
2022-10-04T09:14:13.009Z,8.1
2022-10-04T09:15:12.981Z,8.1
2022-10-04T09:16:13.086Z,8.2
2022-10-04T09:17:12.960Z,8.2
2022-10-04T09:18:12.971Z,8.2
2022-10-04T09:19:12.967Z,8.1
2022-10-04T09:20:37.395Z,8.1
2022-10-04T09:21:12.977Z,8.1
2022-10-04T09:22:12.968Z,8.2
2022-10-04T09:23:12.992Z,8.2
2022-10-04T09:24:12.956Z,8.1
2022-10-04T09:25:12.959Z,8.1
2022-10-04T09:26:12.990Z,8.3
2022-10-04T09:27:12.982Z,8.4
2022-10-04T09:28:12.997Z,8.5
2022-10-04T09:29:12.994Z,8.5
2022-10-04T09:30:13.010Z,8.3
2022-10-04T09:31:13.055Z,8.5
2022-10-04T09:32:12.975Z,8.4
2022-10-04T09:33:12.980Z,8.2
2022-10-04T09:34:12.975Z,8.2
2022-10-04T09:35:12.969Z,8.3
2022-10-04T09:36:12.974Z,8
2022-10-04T09:37:12.964Z,8.1
2022-10-04T09:38:12.962Z,8.2
2022-10-04T09:39:29.603Z,8.3
2022-10-04T09:40:12.986Z,8.2
2022-10-04T09:41:13.023Z,8.3
2022-10-04T09:42:13.002Z,8.3
2022-10-04T09:43:12.980Z,8.4
2022-10-04T09:44:12.978Z,8.1
2022-10-04T09:45:12.977Z,8.3
2022-10-04T09:46:12.997Z,8.2
2022-10-04T09:47:12.965Z,8.1
2022-10-04T09:48:12.989Z,8.1
2022-10-04T09:49:13.004Z,8.1
2022-10-04T09:50:12.981Z,8.1
2022-10-04T09:51:12.986Z,8.1
2022-10-04T09:52:12.983Z,8.2
2022-10-04T09:53:13.151Z,8.1
2022-10-04T09:54:12.983Z,8.2
2022-10-04T09:55:12.968Z,8.1
2022-10-04T09:56:12.990Z,8.2
2022-10-04T09:57:13.004Z,8.4
2022-10-04T09:58:13.006Z,8.4
2022-10-04T09:59:12.970Z,8.5
2022-10-04T10:00:13.041Z,8.6
2022-10-04T10:01:13.110Z,8.4
2022-10-04T10:02:13.000Z,8.5
2022-10-04T10:03:15.768Z,8.5
2022-10-04T10:04:12.988Z,8.6
2022-10-04T10:05:12.984Z,8.6
2022-10-04T10:06:12.963Z,8.5
2022-10-04T10:07:12.979Z,8.6
2022-10-04T10:08:12.970Z,8.6
2022-10-04T10:09:12.986Z,8.6
2022-10-04T10:10:13.036Z,8.6
2022-10-04T10:11:12.969Z,8.6
2022-10-04T10:12:13.009Z,8.6
2022-10-04T10:13:13.015Z,8.4
2022-10-04T10:14:12.967Z,8.4
2022-10-04T10:15:12.984Z,8.3
2022-10-04T10:16:13.071Z,8.2
2022-10-04T10:17:12.979Z,8.3
2022-10-04T10:18:12.986Z,8.5
2022-10-04T10:19:12.972Z,8.5
2022-10-04T10:20:13.049Z,8.6
2022-10-04T10:21:12.972Z,8.6
2022-10-04T10:22:12.975Z,8.6
2022-10-04T10:23:12.977Z,8.7
2022-10-04T10:24:12.976Z,8.7
2022-10-04T10:25:12.987Z,8.7
2022-10-04T10:26:12.981Z,8.6
2022-10-04T10:27:12.966Z,8.6
2022-10-04T10:28:13.041Z,8.5
2022-10-04T10:29:12.994Z,8.7
2022-10-04T10:30:12.986Z,8.5
2022-10-04T10:31:13.038Z,8.5
2022-10-04T10:32:12.981Z,8.5
2022-10-04T10:33:12.998Z,8.6
2022-10-04T10:34:13.010Z,8.8
2022-10-04T10:35:12.975Z,8.9
2022-10-04T10:36:12.987Z,8.7
2022-10-04T10:37:12.981Z,8.7
2022-10-04T10:38:12.975Z,8.4
2022-10-04T10:39:12.993Z,8.3
2022-10-04T10:40:12.989Z,8.2
2022-10-04T10:41:12.979Z,8.2
2022-10-04T10:42:12.984Z,8.2
2022-10-04T10:43:13.131Z,8.2
2022-10-04T10:44:12.997Z,8.3
2022-10-04T10:45:12.976Z,8.4
2022-10-04T10:46:13.022Z,8.5
2022-10-04T10:47:12.987Z,8.5
2022-10-04T10:48:12.984Z,8.3
2022-10-04T10:49:12.977Z,8.3
2022-10-04T10:50:12.975Z,8.3
2022-10-04T10:51:13.012Z,8.4
2022-10-04T10:52:12.986Z,8.5
2022-10-04T10:53:12.978Z,8.5
2022-10-04T10:54:12.984Z,8.6
2022-10-04T10:55:12.992Z,8.5
2022-10-04T10:56:13.065Z,8.5
2022-10-04T10:57:12.989Z,8.6
2022-10-04T10:58:13.015Z,8.6
2022-10-04T10:59:13.018Z,8.5
2022-10-04T11:00:13.007Z,8.4
2022-10-04T11:02:13.109Z,8.6
2022-10-04T11:03:14.623Z,8.6
2022-10-04T11:04:12.981Z,8.4
2022-10-04T11:05:12.981Z,8.6
2022-10-04T11:06:12.988Z,8.4
2022-10-04T11:07:12.978Z,8.4
2022-10-04T11:08:13.004Z,8.4
2022-10-04T11:09:13.008Z,8.4
2022-10-04T11:10:13.019Z,8.4
2022-10-04T11:11:12.985Z,8.7
2022-10-04T11:12:12.995Z,8.7
2022-10-04T11:13:12.991Z,8.8
2022-10-04T11:14:13.040Z,8.8
2022-10-04T11:15:13.006Z,8.8
2022-10-04T11:16:13.035Z,8.6
2022-10-04T11:17:13.038Z,8.2
2022-10-04T11:18:12.989Z,8.3
2022-10-04T11:19:12.972Z,8.4
2022-10-04T11:20:12.984Z,8.6
2022-10-04T11:21:12.998Z,8.6
2022-10-04T11:22:12.997Z,8.7
2022-10-04T11:23:13.014Z,8.6
2022-10-04T11:24:12.991Z,8.7
2022-10-04T11:25:13.008Z,8.9
2022-10-04T11:26:12.994Z,8.9
2022-10-04T11:27:12.987Z,8.9
2022-10-04T11:28:13.054Z,8.7
2022-10-04T11:29:13.016Z,8.7
2022-10-04T11:30:13.013Z,8.9
2022-10-04T11:31:13.026Z,8.9
2022-10-04T11:32:12.985Z,8.7
2022-10-04T11:33:13.012Z,8.8
2022-10-04T11:34:16.529Z,8.9
2022-10-04T11:35:12.986Z,8.8
2022-10-04T11:37:13.004Z,8.7
2022-10-04T11:38:12.978Z,8.6
2022-10-04T11:39:13.035Z,8.4
2022-10-04T11:40:12.999Z,8.4
2022-10-04T11:41:12.994Z,8.5
2022-10-04T11:42:13.014Z,8.6
2022-10-04T11:43:12.994Z,8.7
2022-10-04T11:44:13.025Z,8.5
2022-10-04T11:45:13.041Z,8.3
2022-10-04T11:46:13.131Z,8.2
2022-10-04T11:47:13.166Z,8.1
2022-10-04T11:48:13.000Z,8.1
2022-10-04T11:49:12.997Z,8.2
2022-10-04T11:50:12.990Z,8.5
2022-10-04T11:51:13.003Z,8.5
2022-10-04T11:52:13.006Z,8.8
2022-10-04T11:53:13.007Z,8.8
2022-10-04T11:54:13.008Z,8.7
2022-10-04T11:55:12.990Z,8.9
2022-10-04T11:56:13.000Z,8.7
2022-10-04T11:57:13.156Z,8.6
2022-10-04T11:58:13.009Z,8.8
2022-10-04T11:59:12.994Z,8.6
2022-10-04T12:00:13.008Z,8.8
2022-10-04T12:01:13.008Z,8.9
2022-10-04T12:02:13.012Z,8.5
2022-10-04T12:03:13.042Z,8.4
2022-10-04T12:04:13.130Z,8.6
2022-10-04T12:06:13.000Z,8.8
2022-10-04T12:08:13.016Z,8.5
2022-10-04T12:09:13.025Z,8.5
2022-10-04T12:10:12.998Z,8.4
2022-10-04T12:11:13.002Z,8.2
2022-10-04T12:12:12.987Z,8.3
2022-10-04T12:13:13.028Z,8.4
2022-10-04T12:14:23.288Z,8.6
2022-10-04T12:15:23.331Z,8.6
2022-10-04T12:16:13.155Z,8.7
2022-10-04T12:17:12.997Z,8.8
2022-10-04T12:18:13.029Z,8.8
2022-10-04T12:19:12.998Z,8.9
2022-10-04T12:20:13.110Z,8.5
2022-10-04T12:21:12.994Z,8.6
2022-10-04T12:22:13.005Z,8.5
2022-10-04T12:23:13.028Z,8.8
2022-10-04T12:24:12.997Z,8.7
2022-10-04T12:25:12.991Z,8.7
2022-10-04T12:26:18.385Z,8.4
2022-10-04T12:27:12.999Z,8.4
2022-10-04T12:28:07.931Z,8.8
2022-10-04T12:29:13.011Z,8.8
2022-10-04T12:30:13.009Z,8.5
2022-10-04T12:31:13.049Z,8.5
2022-10-04T12:32:12.998Z,8.5
2022-10-04T12:33:13.015Z,8.4
2022-10-04T12:34:13.017Z,8.5
2022-10-04T12:35:13.023Z,8.5
2022-10-04T12:36:13.010Z,8.9
2022-10-04T12:37:13.016Z,8.6
2022-10-04T12:38:13.013Z,8.6
2022-10-04T12:39:13.021Z,8.7
2022-10-04T12:40:13.010Z,9
2022-10-04T12:41:13.012Z,8.8
2022-10-04T12:42:13.018Z,8.7
2022-10-04T12:43:13.007Z,8.8
2022-10-04T12:44:13.010Z,9
2022-10-04T12:45:13.022Z,8.9
2022-10-04T12:46:13.109Z,8.9
2022-10-04T12:47:13.049Z,9
2022-10-04T12:48:13.008Z,9.3
2022-10-04T12:49:13.041Z,9.2
2022-10-04T12:50:13.015Z,9.1
2022-10-04T12:51:13.011Z,8.7
2022-10-04T12:52:13.010Z,8.5
2022-10-04T12:53:13.018Z,8.5
2022-10-04T12:54:13.020Z,8.4
2022-10-04T12:55:13.003Z,8.6
2022-10-04T12:56:13.012Z,8.7
2022-10-04T12:57:13.013Z,8.5
2022-10-04T12:58:13.022Z,8.7
2022-10-04T12:59:13.008Z,8.7
2022-10-04T13:00:13.015Z,8.8
2022-10-04T13:02:13.129Z,8.9
2022-10-04T13:03:13.010Z,9
2022-10-04T13:04:13.003Z,9.1
2022-10-04T13:05:13.023Z,8.9
2022-10-04T13:06:13.039Z,9
2022-10-04T13:07:13.024Z,9
2022-10-04T13:08:13.026Z,8.8
2022-10-04T13:09:13.015Z,8.9
2022-10-04T13:10:24.045Z,8.8
2022-10-04T13:11:13.009Z,8.5
2022-10-04T13:12:13.024Z,8.7
2022-10-04T13:13:13.047Z,8.8
2022-10-04T13:14:13.020Z,8.7
2022-10-04T13:15:13.007Z,8.9
2022-10-04T13:17:28.568Z,9
2022-10-04T13:18:13.240Z,8.9
2022-10-04T13:19:13.023Z,8.9
2022-10-04T13:20:13.044Z,9
2022-10-04T13:21:13.030Z,9.2
2022-10-04T13:22:13.022Z,9.4
2022-10-04T13:23:13.025Z,8.9
2022-10-04T13:24:13.026Z,9
2022-10-04T13:26:13.032Z,9.1
2022-10-04T13:27:13.022Z,9.1
2022-10-04T13:28:13.131Z,9.2
2022-10-04T13:29:13.023Z,9
2022-10-04T13:30:13.025Z,8.9
2022-10-04T13:31:13.066Z,9.1
2022-10-04T13:32:13.102Z,9
2022-10-04T13:33:13.015Z,8.8
2022-10-04T13:34:13.034Z,8.9
2022-10-04T13:35:13.014Z,9.1
2022-10-04T13:36:13.023Z,9.2
2022-10-04T13:37:13.022Z,9.4
2022-10-04T13:38:13.035Z,9
2022-10-04T13:39:13.040Z,8.8
2022-10-04T13:40:13.041Z,9
2022-10-04T13:41:13.042Z,9.1
2022-10-04T13:42:13.046Z,8.8
2022-10-04T13:43:13.054Z,8.8
2022-10-04T13:44:13.030Z,9
2022-10-04T13:45:13.051Z,9.2
2022-10-04T13:46:13.076Z,9.2
2022-10-04T13:47:13.037Z,9.2
2022-10-04T13:48:16.001Z,9.3
2022-10-04T13:49:13.054Z,9.2
2022-10-04T13:50:13.023Z,9.3
2022-10-04T13:51:13.025Z,9
2022-10-04T13:52:13.021Z,9.1
2022-10-04T13:53:13.032Z,9.3
2022-10-04T13:54:13.052Z,9.3
2022-10-04T13:55:13.036Z,9
2022-10-04T13:56:13.036Z,9
2022-10-04T13:57:13.041Z,9.2
2022-10-04T13:58:13.026Z,9.3
2022-10-04T13:59:13.043Z,9.1
2022-10-04T14:01:13.121Z,9.3
2022-10-04T14:02:13.027Z,9.4
2022-10-04T14:03:13.094Z,9.3
2022-10-04T14:04:13.041Z,9.5
2022-10-04T14:05:13.045Z,9.5
2022-10-04T14:06:13.062Z,9.4
2022-10-04T14:07:13.051Z,9.2
2022-10-04T14:08:13.052Z,9.1
2022-10-04T14:09:13.028Z,9.2
2022-10-04T14:10:13.035Z,9.1